createdAt,value
2024-04-10T00:01:45.116Z,15.00
2024-04-10T00:06:47.230Z,14.80
2024-04-10T00:11:49.267Z,14.70
2024-04-10T00:16:51.974Z,14.90
2024-04-10T00:21:55.171Z,15.00
2024-04-10T00:26:57.128Z,15.10
2024-04-10T00:32:00.147Z,14.90
2024-04-10T00:37:02.463Z,14.80
2024-04-10T00:42:04.488Z,14.70
2024-04-10T00:47:06.668Z,14.50
2024-04-10T00:52:09.721Z,14.40
2024-04-10T00:57:11.690Z,14.20
2024-04-10T01:02:14.208Z,14.20
2024-04-10T01:07:16.135Z,14.00
2024-04-10T01:12:18.147Z,14.10
2024-04-10T01:17:20.827Z,14.30
2024-04-10T01:22:22.799Z,14.40
2024-04-10T01:27:24.691Z,14.30
2024-04-10T01:32:26.835Z,14.20
2024-04-10T01:37:28.887Z,14.20
2024-04-10T01:42:31.078Z,14.20
2024-04-10T01:47:33.168Z,13.90
2024-04-10T01:52:35.742Z,13.70
2024-04-10T01:57:37.662Z,14.00
2024-04-10T02:02:39.733Z,13.90
2024-04-10T02:07:42.435Z,13.80
2024-04-10T02:12:44.383Z,13.70
2024-04-10T02:17:46.688Z,13.50
2024-04-10T02:22:49.127Z,13.70
2024-04-10T02:27:51.097Z,13.70
2024-04-10T02:32:53.286Z,13.50
2024-04-10T02:37:55.464Z,13.40
2024-04-10T02:43:08.538Z,13.30
2024-04-10T02:48:10.610Z,13.30
2024-04-10T02:53:12.739Z,13.10
2024-04-10T02:58:14.943Z,13.00
2024-04-10T03:03:17.658Z,12.90
2024-04-10T03:08:20.226Z,13.00
2024-04-10T03:13:22.178Z,12.80
2024-04-10T03:18:24.316Z,12.70
2024-04-10T03:23:26.386Z,12.70
2024-04-10T03:28:28.404Z,12.60
2024-04-10T03:33:30.385Z,12.50
2024-04-10T03:38:32.445Z,12.50
2024-04-10T03:43:34.420Z,12.60
2024-04-10T03:48:36.462Z,12.70
2024-04-10T03:53:38.629Z,12.80
2024-04-10T03:58:40.583Z,12.90
2024-04-10T04:03:42.871Z,13.00
2024-04-10T04:08:44.950Z,13.40
2024-04-10T04:13:47.161Z,13.60
2024-04-10T04:18:49.277Z,13.80
2024-04-10T04:23:52.034Z,14.20
2024-04-10T04:28:55.175Z,14.50
2024-04-10T04:33:58.389Z,14.80
2024-04-10T04:39:00.480Z,15.00
2024-04-10T04:44:04.113Z,15.30
2024-04-10T04:49:07.147Z,15.70
2024-04-10T04:54:09.045Z,16.10
2024-04-10T04:59:11.555Z,16.60
2024-04-10T05:04:32.239Z,17.10
2024-04-10T05:09:34.232Z,18.10
2024-04-10T05:14:36.436Z,18.90
2024-04-10T05:19:38.482Z,19.00
2024-04-10T05:24:41.651Z,19.50
2024-04-10T05:29:43.584Z,19.90
2024-04-10T05:34:45.529Z,20.50
2024-04-10T05:39:48.977Z,20.10
2024-04-10T05:44:52.429Z,20.10
2024-04-10T05:49:55.305Z,20.30
2024-04-10T05:54:57.728Z,21.20
2024-04-10T05:59:59.741Z,20.90
2024-04-10T06:05:01.935Z,20.80
2024-04-10T06:10:06.290Z,20.70
2024-04-10T06:15:08.603Z,20.70
2024-04-10T06:20:15.187Z,20.90
2024-04-10T06:25:17.267Z,20.60
2024-04-10T06:30:19.191Z,20.50
2024-04-10T06:35:21.370Z,20.80
2024-04-10T06:40:23.812Z,21.90
2024-04-10T06:45:26.503Z,23.10
2024-04-10T06:50:28.678Z,24.90
2024-04-10T06:55:30.611Z,26.20
2024-04-10T07:00:32.777Z,26.70
2024-04-10T07:05:36.507Z,26.20
2024-04-10T07:10:39.139Z,25.80
2024-04-10T07:15:41.672Z,26.20
2024-04-10T07:20:43.855Z,27.70
2024-04-10T07:25:45.784Z,28.90
2024-04-10T07:30:51.007Z,28.30
2024-04-10T07:35:52.909Z,27.50
2024-04-10T07:40:55.570Z,29.50
2024-04-10T07:45:57.563Z,29.10
2024-04-10T07:51:01.943Z,29.60
2024-04-10T07:56:04.885Z,28.70
2024-04-10T08:01:07.898Z,29.30
2024-04-10T08:06:11.349Z,27.80
2024-04-10T08:11:15.671Z,27.30
2024-04-10T08:16:18.961Z,28.60
2024-04-10T08:21:21.049Z,28.10
2024-04-10T08:26:23.084Z,29.10
2024-04-10T08:31:28.927Z,28.10
2024-04-10T08:36:33.460Z,29.10
2024-04-10T08:41:35.813Z,28.50
2024-04-10T08:46:39.761Z,28.80
2024-04-10T08:51:42.525Z,30.30
2024-04-10T08:56:44.498Z,31.30
2024-04-10T09:01:48.790Z,30.60
2024-04-10T09:07:05.214Z,29.60
2024-04-10T09:12:07.672Z,27.90
2024-04-10T09:17:11.053Z,28.90
2024-04-10T09:22:13.241Z,28.80
2024-04-10T09:27:15.540Z,27.30
2024-04-10T09:32:21.159Z,26.60
2024-04-10T09:37:23.192Z,27.00
2024-04-10T09:42:28.481Z,26.60
2024-04-10T09:47:33.628Z,25.60
2024-04-10T09:52:35.631Z,25.40
2024-04-10T09:57:37.921Z,26.30
2024-04-10T10:02:42.933Z,25.70
2024-04-10T10:07:45.348Z,28.60
2024-04-10T10:12:48.055Z,29.10
2024-04-10T10:18:00.930Z,27.50
2024-04-10T10:23:10.233Z,27.30
2024-04-10T10:28:14.264Z,24.10
2024-04-10T10:33:22.676Z,23.20
2024-04-10T10:38:24.746Z,23.00
2024-04-10T10:43:26.667Z,22.20
2024-04-10T10:48:28.609Z,22.10
2024-04-10T10:53:30.828Z,21.90
2024-04-10T10:58:32.840Z,22.10
2024-04-10T11:03:34.940Z,21.90
2024-04-10T11:08:37.311Z,21.80
2024-04-10T11:13:47.857Z,21.80
2024-04-10T11:18:50.209Z,21.30
2024-04-10T11:23:52.333Z,20.90
2024-04-10T11:28:55.577Z,20.50
2024-04-10T11:33:57.887Z,20.60
2024-04-10T11:39:00.111Z,20.50
2024-04-10T11:44:01.990Z,20.90
2024-04-10T11:49:04.208Z,20.90
2024-04-10T11:54:06.300Z,20.90
2024-04-10T11:59:08.287Z,20.40
2024-04-10T12:04:10.611Z,20.70
2024-04-10T12:09:12.907Z,20.70
2024-04-10T12:14:14.874Z,20.60
2024-04-10T12:19:17.140Z,20.60
2024-04-10T12:24:19.246Z,20.70
2024-04-10T12:29:21.233Z,20.50
2024-04-10T12:34:23.688Z,20.60
2024-04-10T12:39:27.051Z,20.50
2024-04-10T12:44:29.309Z,20.70
2024-04-10T12:49:33.043Z,20.60
2024-04-10T12:54:36.831Z,20.50
2024-04-10T12:59:38.930Z,20.10
2024-04-10T13:04:42.044Z,19.70
2024-04-10T13:09:44.139Z,19.00
2024-04-10T13:14:46.149Z,18.80
2024-04-10T13:19:48.957Z,18.80
2024-04-10T13:24:51.651Z,18.70
2024-04-10T13:29:53.638Z,18.50
2024-04-10T13:34:56.332Z,18.60
2024-04-10T13:39:58.410Z,18.70
2024-04-10T13:45:00.561Z,18.90
2024-04-10T13:50:03.039Z,18.60
2024-04-10T13:55:07.270Z,18.60
2024-04-10T14:00:11.787Z,18.20
2024-04-10T14:05:13.956Z,18.00
2024-04-10T14:10:16.597Z,18.00
2024-04-10T14:15:18.569Z,18.20
2024-04-10T14:20:20.572Z,18.30
2024-04-10T14:25:22.655Z,18.40
2024-04-10T14:30:24.573Z,18.20
2024-04-10T14:35:26.511Z,18.00
2024-04-10T14:40:30.303Z,17.80
2024-04-10T14:45:32.346Z,17.70
2024-04-10T14:50:34.285Z,17.00
2024-04-10T14:55:36.237Z,16.80
2024-04-10T15:00:38.302Z,16.60
2024-04-10T15:05:40.352Z,16.50
2024-04-10T15:10:43.710Z,16.50
2024-04-10T15:15:52.201Z,16.10
2024-04-10T15:20:55.302Z,16.10
2024-04-10T15:25:58.769Z,15.90
2024-04-10T15:31:05.748Z,15.80
2024-04-10T15:36:12.796Z,15.50
2024-04-10T15:41:15.069Z,15.40
2024-04-10T15:46:17.020Z,15.30
2024-04-10T15:51:18.973Z,15.20
2024-04-10T15:56:20.917Z,15.00
2024-04-10T16:01:23.018Z,14.80
2024-04-10T16:06:25.435Z,14.60
2024-04-10T16:11:27.983Z,14.30
2024-04-10T16:16:30.153Z,14.30
2024-04-10T16:21:32.210Z,14.20
2024-04-10T16:26:35.836Z,14.20
2024-04-10T16:31:37.764Z,14.20
2024-04-10T16:36:39.675Z,14.20
2024-04-10T16:41:41.695Z,14.00
2024-04-10T16:46:43.618Z,14.00
2024-04-10T16:51:45.604Z,13.80
2024-04-10T16:56:47.765Z,13.60
2024-04-10T17:01:49.956Z,13.40
2024-04-10T17:06:52.405Z,13.40
2024-04-10T17:13:24.432Z,13.30
2024-04-10T17:18:45.130Z,13.20
2024-04-10T17:23:49.594Z,13.10
2024-04-10T17:28:52.912Z,12.90
2024-04-10T17:33:57.678Z,12.90
2024-04-10T17:38:59.831Z,12.70
2024-04-10T17:44:02.345Z,12.50
2024-04-10T17:49:04.440Z,12.30
2024-04-10T17:54:06.854Z,12.10
2024-04-10T17:59:08.843Z,12.00
2024-04-10T18:04:10.993Z,12.10
2024-04-10T18:09:13.288Z,12.00
2024-04-10T18:14:15.267Z,11.90
2024-04-10T18:19:18.967Z,11.90
2024-04-10T18:24:21.143Z,11.80
2024-04-10T18:29:23.308Z,11.70
2024-04-10T18:34:25.567Z,11.50
2024-04-10T18:39:28.823Z,11.50
2024-04-10T18:44:36.512Z,11.40
2024-04-10T18:49:38.718Z,11.50
2024-04-10T18:54:40.724Z,11.50
2024-04-10T18:59:42.675Z,11.40
2024-04-10T19:04:44.655Z,11.30
2024-04-10T19:09:46.607Z,11.20
2024-04-10T19:14:48.555Z,11.20
2024-04-10T19:19:50.784Z,11.10
2024-04-10T19:24:54.494Z,11.10
2024-04-10T19:29:57.209Z,10.90
2024-04-10T19:34:59.388Z,11.00
2024-04-10T19:40:01.477Z,10.90
2024-04-10T19:45:03.543Z,10.90
2024-04-10T19:50:05.667Z,10.80
2024-04-10T19:55:07.595Z,10.70
2024-04-10T20:00:11.527Z,10.70
2024-04-10T20:05:17.239Z,10.70
2024-04-10T20:10:19.290Z,10.80
2024-04-10T20:15:21.544Z,10.60
2024-04-10T20:20:23.458Z,10.50
2024-04-10T20:25:25.682Z,10.50
2024-04-10T20:30:28.316Z,10.50
2024-04-10T20:35:30.229Z,10.40
2024-04-10T20:40:32.201Z,10.40
2024-04-10T20:45:34.509Z,10.40
2024-04-10T20:50:36.426Z,10.30
2024-04-10T20:55:38.314Z,10.20
2024-04-10T21:00:40.202Z,10.20
2024-04-10T21:05:42.154Z,10.10
2024-04-10T21:11:02.812Z,10.00
2024-04-10T21:16:24.329Z,9.90
2024-04-10T21:21:45.072Z,9.80
2024-04-10T21:27:05.357Z,9.70
2024-04-10T21:32:26.345Z,9.70
2024-04-10T21:37:46.793Z,9.50
2024-04-10T21:43:07.149Z,9.40
2024-04-10T21:48:27.617Z,9.30
2024-04-10T21:53:48.208Z,9.20
2024-04-10T21:59:08.655Z,9.10
2024-04-10T22:04:29.528Z,9.00
2024-04-10T22:09:31.629Z,9.00
2024-04-10T22:14:34.250Z,9.00
2024-04-10T22:19:55.011Z,8.90
2024-04-10T22:25:00.593Z,8.80
2024-04-10T22:30:02.711Z,8.60
2024-04-10T22:35:06.322Z,8.60
2024-04-10T22:40:08.540Z,8.50
2024-04-10T22:45:11.493Z,8.50
2024-04-10T22:50:14.340Z,8.30
2024-04-10T22:55:16.795Z,8.20
2024-04-10T23:00:18.727Z,8.30
2024-04-10T23:05:40.200Z,8.30
2024-04-10T23:10:42.636Z,8.40
2024-04-10T23:15:44.651Z,8.40
2024-04-10T23:20:46.813Z,8.30
2024-04-10T23:25:48.760Z,8.20
2024-04-10T23:30:50.664Z,8.20
2024-04-10T23:35:52.793Z,8.00
2024-04-10T23:40:54.818Z,8.10
2024-04-10T23:45:56.983Z,7.90
2024-04-10T23:51:00.230Z,8.00
2024-04-10T23:56:02.237Z,7.80
